createdAt,value
2017-10-15T00:00:43.153Z,90.7
2017-10-15T00:01:42.487Z,90.7
2017-10-15T00:02:41.448Z,90.7
2017-10-15T00:03:40.932Z,90.9
2017-10-15T00:04:40.277Z,90.9
2017-10-15T00:05:39.106Z,91
2017-10-15T00:07:38.081Z,91.1
2017-10-15T00:08:37.150Z,91.1
2017-10-15T00:09:36.353Z,90.9
2017-10-15T00:10:35.694Z,91
2017-10-15T00:11:34.798Z,91
2017-10-15T00:12:34.132Z,91.1
2017-10-15T00:13:33.098Z,91
2017-10-15T00:14:32.571Z,91.1
2017-10-15T00:15:31.769Z,91
2017-10-15T00:16:30.975Z,91
2017-10-15T00:17:30.076Z,91.2
2017-10-15T00:18:29.170Z,91
2017-10-15T00:19:28.875Z,91
2017-10-15T00:20:27.578Z,90.9
2017-10-15T00:21:26.910Z,91
2017-10-15T00:22:26.112Z,91.1
2017-10-15T00:23:25.310Z,91.1
2017-10-15T00:24:24.777Z,90.9
2017-10-15T00:25:23.770Z,91
2017-10-15T00:26:23.106Z,91
2017-10-15T00:27:22.314Z,91
2017-10-15T00:28:21.785Z,91
2017-10-15T00:29:21.121Z,91
2017-10-15T00:30:20.085Z,91.1
2017-10-15T00:31:19.553Z,91.3
2017-10-15T00:32:18.515Z,91.1
2017-10-15T00:33:17.845Z,91.1
2017-10-15T00:35:16.300Z,91.3
2017-10-15T00:36:15.151Z,91.4
2017-10-15T00:37:14.485Z,91.4
2017-10-15T00:39:13.072Z,91.5
2017-10-15T00:40:12.416Z,91.5
2017-10-15T00:42:10.772Z,91.6
2017-10-15T00:44:09.134Z,91.6
2017-10-15T00:45:08.468Z,91.7
2017-10-15T00:46:07.664Z,91.7
2017-10-15T00:48:06.125Z,91.8
2017-10-15T00:49:05.606Z,91.7
2017-10-15T00:50:04.721Z,91.7
2017-10-15T00:51:03.557Z,91.7
2017-10-15T00:52:03.040Z,91.7
2017-10-15T00:53:02.021Z,91.7
2017-10-15T00:54:01.358Z,91.7
2017-10-15T00:55:00.515Z,91.7
2017-10-15T00:55:59.842Z,91.6
2017-10-15T00:56:59.064Z,91.6
2017-10-15T00:57:58.522Z,91.7
2017-10-15T00:58:57.870Z,91.6
2017-10-15T00:59:56.835Z,91.5
2017-10-15T01:00:56.299Z,91.6
2017-10-15T01:01:55.142Z,91.6
2017-10-15T01:02:54.508Z,91.6
2017-10-15T01:04:53.229Z,91.7
2017-10-15T01:05:52.187Z,91.8
2017-10-15T01:06:51.265Z,91.6
2017-10-15T01:07:50.872Z,91.6
2017-10-15T01:08:49.709Z,91.7
2017-10-15T01:09:48.915Z,91.8
2017-10-15T01:10:48.119Z,91.8
2017-10-15T01:11:47.585Z,91.8
2017-10-15T01:12:46.787Z,91.6
2017-10-15T01:13:45.755Z,91.6
2017-10-15T01:14:45.069Z,91.7
2017-10-15T01:15:44.415Z,91.8
2017-10-15T01:16:43.746Z,91.9
2017-10-15T01:17:42.946Z,91.9
2017-10-15T01:18:41.912Z,92.2
2017-10-15T01:19:41.511Z,92.1
2017-10-15T01:20:40.208Z,92.2
2017-10-15T01:21:39.923Z,92.2
2017-10-15T01:22:39.122Z,92.3
2017-10-15T01:23:38.322Z,92.3
2017-10-15T01:24:37.021Z,92.5
2017-10-15T01:25:36.629Z,92.4
2017-10-15T01:26:35.723Z,92.2
2017-10-15T01:28:34.062Z,92
2017-10-15T01:29:33.156Z,92.1
2017-10-15T01:30:32.729Z,92.1
2017-10-15T01:31:31.709Z,92
2017-10-15T01:32:30.908Z,92.1
2017-10-15T01:33:30.109Z,92.4
2017-10-15T01:34:29.440Z,92.4
2017-10-15T01:35:29.038Z,92.3
2017-10-15T01:36:28.108Z,92.2
2017-10-15T01:37:27.435Z,92.2
2017-10-15T01:38:26.263Z,92.5
2017-10-15T01:39:25.476Z,92.4
2017-10-15T01:40:24.677Z,92.5
2017-10-15T01:41:24.141Z,92.5
2017-10-15T01:42:23.345Z,92.6
2017-10-15T01:43:22.316Z,92.6
2017-10-15T01:44:21.662Z,92.5
2017-10-15T01:45:21.011Z,92.5
2017-10-15T01:46:19.842Z,92.6
2017-10-15T01:47:19.175Z,92.6
2017-10-15T01:48:18.509Z,92.5
2017-10-15T01:49:17.709Z,92.5
2017-10-15T01:50:16.809Z,92.6
2017-10-15T01:51:16.020Z,92.7
2017-10-15T01:52:15.363Z,92.6
2017-10-15T01:54:13.729Z,92.4
2017-10-15T01:55:12.935Z,92.3
2017-10-15T01:56:12.266Z,92.3
2017-10-15T01:56:42.787Z,92.3
2017-10-15T01:58:10.442Z,92.2
2017-10-15T01:59:09.902Z,92.4
2017-10-15T02:00:09.240Z,92.6
2017-10-15T02:01:08.443Z,92.6
2017-10-15T02:02:07.650Z,92.7
2017-10-15T02:03:06.605Z,92.7
2017-10-15T02:04:05.812Z,92.6
2017-10-15T02:05:04.886Z,92.6
2017-10-15T02:06:04.091Z,92.8
2017-10-15T02:07:03.560Z,93.1
2017-10-15T02:07:34.089Z,93.1
2017-10-15T02:08:04.597Z,93
2017-10-15T02:09:02.184Z,93.1
2017-10-15T02:10:01.154Z,93
2017-10-15T02:11:00.255Z,93.2
2017-10-15T02:11:59.594Z,93.1
2017-10-15T02:12:58.567Z,93.1
2017-10-15T02:13:58.140Z,93.1
2017-10-15T02:14:57.107Z,93.3
2017-10-15T02:15:56.572Z,93.2
2017-10-15T02:17:05.605Z,93.5
2017-10-15T02:17:54.893Z,93.3
2017-10-15T02:18:54.373Z,93.4
2017-10-15T02:19:53.457Z,93.4
2017-10-15T02:20:52.544Z,93.3
2017-10-15T02:21:51.751Z,93.3
2017-10-15T02:22:50.741Z,93.4
2017-10-15T02:23:50.435Z,93.3
2017-10-15T02:24:49.405Z,93.3
2017-10-15T02:25:48.747Z,93.2
2017-10-15T02:26:47.728Z,93.4
2017-10-15T02:28:46.458Z,93.4
2017-10-15T02:29:45.442Z,93.4
2017-10-15T02:30:44.436Z,93.6
2017-10-15T02:31:43.800Z,93.5
2017-10-15T02:32:43.007Z,93.6
2017-10-15T02:33:42.480Z,93.6
2017-10-15T02:34:41.323Z,93.6
2017-10-15T02:35:40.539Z,93.6
2017-10-15T02:36:39.751Z,93.6
2017-10-15T02:37:38.873Z,93.7
2017-10-15T02:38:38.215Z,93.7
2017-10-15T02:39:37.451Z,93.7
2017-10-15T02:40:36.655Z,93.7
2017-10-15T02:41:35.868Z,93.7
2017-10-15T02:42:34.980Z,93.7
2017-10-15T02:43:34.217Z,93.7
2017-10-15T02:44:33.328Z,93.8
2017-10-15T02:45:32.540Z,93.7
2017-10-15T02:46:31.753Z,93.8
2017-10-15T02:47:31.111Z,93.7
2017-10-15T02:48:30.239Z,93.8
2017-10-15T02:49:29.513Z,93.8
2017-10-15T02:50:28.632Z,93.8
2017-10-15T02:51:27.850Z,93.8
2017-10-15T02:52:26.973Z,93.9
2017-10-15T02:53:26.323Z,94
2017-10-15T02:54:25.407Z,94
2017-10-15T02:55:24.663Z,94
2017-10-15T02:56:24.137Z,94
2017-10-15T02:57:22.980Z,94
2017-10-15T02:58:22.326Z,94.1
2017-10-15T02:59:21.535Z,94.1
2017-10-15T03:00:20.371Z,94.1
2017-10-15T03:01:19.983Z,94.2
2017-10-15T03:02:19.073Z,94.1
2017-10-15T03:02:49.600Z,94.1
2017-10-15T03:03:20.124Z,94.1
2017-10-15T03:03:50.780Z,94.1
2017-10-15T03:04:21.071Z,94.1
2017-10-15T03:06:15.780Z,94.1
2017-10-15T03:07:15.262Z,94.1
2017-10-15T03:10:12.513Z,94.1
2017-10-15T03:11:11.864Z,94
2017-10-15T03:12:11.214Z,93.9
2017-10-15T03:13:10.460Z,93.9
2017-10-15T03:14:09.574Z,93.9
2017-10-15T03:15:08.418Z,93.9
2017-10-15T03:16:08.013Z,93.8
2017-10-15T03:17:06.978Z,93.9
2017-10-15T03:18:06.196Z,93.7
2017-10-15T03:19:05.537Z,93.8
2017-10-15T03:20:04.379Z,93.8
2017-10-15T03:21:04.000Z,93.9
2017-10-15T03:22:02.847Z,93.8
2017-10-15T03:23:02.204Z,93.8
2017-10-15T03:24:01.413Z,93.7
2017-10-15T03:25:00.492Z,93.7
2017-10-15T03:25:59.699Z,93.6
2017-10-15T03:26:59.187Z,93.6
2017-10-15T03:27:58.028Z,93.5
2017-10-15T03:28:57.373Z,93.5
2017-10-15T03:29:56.587Z,93.6
2017-10-15T03:30:55.934Z,93.5
2017-10-15T03:31:55.060Z,93.4
2017-10-15T03:32:54.273Z,93.5
2017-10-15T03:33:53.516Z,93.5
2017-10-15T03:34:52.725Z,93.5
2017-10-15T03:35:51.673Z,93.6
2017-10-15T03:36:50.786Z,93.5
2017-10-15T03:37:50.372Z,93.5
2017-10-15T03:38:49.724Z,93.4
2017-10-15T03:39:48.560Z,93.3
2017-10-15T03:40:47.898Z,93.4
2017-10-15T03:41:46.867Z,93.3
2017-10-15T03:42:46.340Z,93.2
2017-10-15T03:43:45.557Z,93.3
2017-10-15T03:44:44.535Z,93.3
2017-10-15T03:45:44.022Z,93.4
2017-10-15T03:46:43.367Z,93.3
2017-10-15T03:47:42.350Z,93.3
2017-10-15T03:48:41.568Z,93.3
2017-10-15T03:49:40.546Z,93.3
2017-10-15T03:50:39.659Z,93.4
2017-10-15T03:51:39.157Z,93.4
2017-10-15T03:52:38.507Z,93.5
2017-10-15T03:53:37.481Z,93.5
2017-10-15T03:54:36.461Z,93.4
2017-10-15T03:55:35.680Z,93.4
2017-10-15T03:56:35.159Z,93.5
2017-10-15T03:57:34.373Z,93.6
2017-10-15T03:58:33.614Z,93.7
2017-10-15T03:59:32.462Z,93.7
2017-10-15T04:00:31.808Z,93.7
2017-10-15T04:01:30.891Z,93.7
2017-10-15T04:02:30.236Z,93.7
2017-10-15T04:03:29.086Z,93.7
2017-10-15T04:04:28.429Z,93.5
2017-10-15T04:05:27.778Z,93.7
2017-10-15T04:06:26.888Z,93.7
2017-10-15T04:07:26.124Z,93.7
2017-10-15T04:08:25.466Z,93.6
2017-10-15T04:09:24.306Z,93.5
2017-10-15T04:10:23.879Z,93.5
2017-10-15T04:11:23.098Z,93.5
2017-10-15T04:12:22.306Z,93.5
2017-10-15T04:13:21.149Z,93.5
2017-10-15T04:14:20.492Z,93.4
2017-10-15T04:15:19.440Z,93.3
2017-10-15T04:16:18.905Z,93.4
2017-10-15T04:17:18.118Z,93.3
2017-10-15T04:18:17.328Z,93.3
2017-10-15T04:19:16.538Z,93.2
2017-10-15T04:20:15.749Z,93.2
2017-10-15T04:21:14.964Z,93.1
2017-10-15T04:22:13.805Z,93.3
2017-10-15T04:23:13.139Z,93.2
2017-10-15T04:24:12.753Z,93.2
2017-10-15T04:25:11.723Z,93.2
2017-10-15T04:26:10.701Z,93.2
2017-10-15T04:27:09.940Z,93.2
2017-10-15T04:28:09.151Z,93.2
2017-10-15T04:30:07.756Z,93.4
2017-10-15T04:31:06.859Z,93.6
2017-10-15T04:32:05.834Z,93.8
2017-10-15T04:33:05.310Z,93.9
2017-10-15T04:34:04.277Z,94
2017-10-15T04:35:03.629Z,94.2
2017-10-15T04:37:02.023Z,94.6
2017-10-15T04:38:01.123Z,95
2017-10-15T04:39:00.466Z,94.8
2017-10-15T04:40:58.697Z,95
2017-10-15T04:41:57.915Z,95
2017-10-15T04:42:57.252Z,95.2
2017-10-15T04:43:56.383Z,95.1
2017-10-15T04:44:55.230Z,95.2
2017-10-15T04:45:54.446Z,95.2
2017-10-15T04:46:53.808Z,95.2
2017-10-15T04:47:53.149Z,95.2
2017-10-15T04:48:52.221Z,95.2
2017-10-15T04:49:51.542Z,95.3
2017-10-15T04:50:50.391Z,95.3
2017-10-15T04:51:49.723Z,95.4
2017-10-15T04:52:49.200Z,95.3
2017-10-15T04:53:48.043Z,95.3
2017-10-15T04:54:47.172Z,95.3
2017-10-15T04:55:46.390Z,95.2
2017-10-15T04:56:45.969Z,95.2
2017-10-15T04:57:45.199Z,95.2
2017-10-15T04:58:44.303Z,95.4
2017-10-15T04:59:43.150Z,95.4
2017-10-15T05:00:42.493Z,95.4
2017-10-15T05:01:41.469Z,95.3
2017-10-15T05:02:40.943Z,95.5
2017-10-15T05:03:40.031Z,95.4
2017-10-15T05:04:39.248Z,95.4
2017-10-15T05:05:38.098Z,95.4
2017-10-15T05:06:37.311Z,95.5
2017-10-15T05:07:07.608Z,95.5
2017-10-15T05:07:38.131Z,95.7
2017-10-15T05:08:35.833Z,95.7
2017-10-15T05:09:35.176Z,95.5
2017-10-15T05:10:34.275Z,95.6
2017-10-15T05:11:33.615Z,95.5
2017-10-15T05:12:32.955Z,95.4
2017-10-15T05:13:31.928Z,95.2
2017-10-15T05:14:30.912Z,95.1
2017-10-15T05:15:30.385Z,95.2
2017-10-15T05:16:29.091Z,95.1
2017-10-15T05:17:28.429Z,94.9
2017-10-15T05:18:27.634Z,95
2017-10-15T05:19:27.108Z,95
2017-10-15T05:20:26.085Z,94.9
2017-10-15T05:21:25.164Z,94.8
2017-10-15T05:21:55.817Z,94.8
2017-10-15T05:23:23.450Z,94.8
2017-10-15T05:24:22.923Z,94.8
2017-10-15T05:25:22.137Z,95
2017-10-15T05:26:20.985Z,95
2017-10-15T05:27:20.726Z,94.9
2017-10-15T05:28:19.699Z,94.9
2017-10-15T05:29:19.056Z,94.8
2017-10-15T05:30:17.898Z,94.9
2017-10-15T05:31:17.242Z,94.8
2017-10-15T05:32:16.081Z,94.8
2017-10-15T05:33:15.691Z,94.8
2017-10-15T05:34:14.553Z,94.8
2017-10-15T05:35:13.678Z,94.9
2017-10-15T05:36:12.892Z,94.9
2017-10-15T05:37:12.414Z,94.9
2017-10-15T05:38:11.267Z,94.9
2017-10-15T05:39:10.479Z,95
2017-10-15T05:40:09.689Z,95
2017-10-15T05:41:08.918Z,95.2
2017-10-15T05:42:08.257Z,95.3
2017-10-15T05:43:07.364Z,95.2
2017-10-15T05:44:06.485Z,95.3
2017-10-15T05:45:05.830Z,95.3
2017-10-15T05:46:04.679Z,95.3
2017-10-15T05:47:03.899Z,95.5
2017-10-15T05:48:03.522Z,95.6
2017-10-15T05:50:01.757Z,95.7
2017-10-15T05:51:00.977Z,95.6
2017-10-15T05:52:00.086Z,95.6
2017-10-15T05:52:59.163Z,95.6
2017-10-15T05:53:58.249Z,95.7
2017-10-15T05:54:57.459Z,95.6
2017-10-15T05:55:56.804Z,95.6
2017-10-15T05:56:56.004Z,95.6
2017-10-15T05:57:54.963Z,95.6
2017-10-15T05:58:54.408Z,95.6
2017-10-15T05:59:53.124Z,95.6
2017-10-15T06:00:52.471Z,95.5
2017-10-15T06:01:22.996Z,95.5
2017-10-15T06:01:53.654Z,95.4
2017-10-15T06:02:24.312Z,95.4
2017-10-15T06:02:55.108Z,95.2
2017-10-15T06:03:25.629Z,95.2
2017-10-15T06:04:49.510Z,95.3
2017-10-15T06:05:48.475Z,95.3
2017-10-15T06:06:47.683Z,95.3
2017-10-15T06:07:46.918Z,95.3
2017-10-15T06:08:46.036Z,95.2
2017-10-15T06:09:45.389Z,95.2
2017-10-15T06:10:44.361Z,95.1
2017-10-15T06:11:43.708Z,95.2
2017-10-15T06:12:42.564Z,95.2
2017-10-15T06:14:41.316Z,95.1
2017-10-15T06:15:40.520Z,95
2017-10-15T06:17:39.016Z,95
2017-10-15T06:18:37.997Z,95
2017-10-15T06:19:37.204Z,95
2017-10-15T06:20:36.280Z,95
2017-10-15T06:21:35.380Z,95
2017-10-15T06:22:34.459Z,94.9
2017-10-15T06:23:33.806Z,95
2017-10-15T06:24:32.908Z,95.1
2017-10-15T06:25:32.145Z,95
2017-10-15T06:26:31.358Z,94.9
2017-10-15T06:27:30.703Z,94.9
2017-10-15T06:28:29.685Z,94.9
2017-10-15T06:29:29.028Z,94.8
2017-10-15T06:30:28.371Z,94.9
2017-10-15T06:31:27.474Z,94.9
2017-10-15T06:32:26.585Z,94.9
2017-10-15T06:33:25.662Z,94.9
2017-10-15T06:34:25.006Z,94.9
2017-10-15T06:35:24.080Z,94.9
2017-10-15T06:36:23.301Z,94.9
2017-10-15T06:37:22.393Z,94.9
2017-10-15T06:38:21.413Z,94.9
2017-10-15T06:39:20.769Z,94.9
2017-10-15T06:41:19.132Z,94.9
2017-10-15T06:42:18.475Z,94.9
2017-10-15T06:43:17.186Z,95
2017-10-15T06:44:16.536Z,94.9
2017-10-15T06:45:15.751Z,94.9
2017-10-15T06:46:15.225Z,94.8
2017-10-15T06:47:14.337Z,94.8
2017-10-15T06:48:13.313Z,94.8
2017-10-15T06:49:12.290Z,94.8
2017-10-15T06:50:11.771Z,94.8
2017-10-15T06:51:11.118Z,94.7
2017-10-15T06:52:10.386Z,94.7
2017-10-15T06:53:09.386Z,94.8
2017-10-15T06:54:08.734Z,94.7
2017-10-15T06:55:07.813Z,94.6
2017-10-15T06:56:07.148Z,94.6
2017-10-15T06:57:05.856Z,94.6
2017-10-15T06:58:05.472Z,94.6
2017-10-15T06:59:04.685Z,94.3
2017-10-15T07:01:02.917Z,94.1
2017-10-15T07:02:01.901Z,93.9
2017-10-15T07:03:01.267Z,93.9
2017-10-15T07:04:00.500Z,93.9
2017-10-15T07:04:59.478Z,93.8
2017-10-15T07:05:58.547Z,93.7
2017-10-15T07:06:57.900Z,93.6
2017-10-15T07:07:57.003Z,93.6
2017-10-15T07:08:56.471Z,93.6
2017-10-15T07:09:55.461Z,93.6
2017-10-15T07:10:54.545Z,93.6
2017-10-15T07:11:54.024Z,93.6
2017-10-15T07:12:53.113Z,93.5
2017-10-15T07:13:52.456Z,93.4
2017-10-15T07:14:51.174Z,93.3
2017-10-15T07:15:50.510Z,93.3
2017-10-15T07:16:49.748Z,93.3
2017-10-15T07:17:49.002Z,93.3
2017-10-15T07:18:47.900Z,93.3
2017-10-15T07:19:47.250Z,93.4
2017-10-15T07:20:46.331Z,93.3
2017-10-15T07:21:46.064Z,93.3
2017-10-15T07:22:45.057Z,93.2
2017-10-15T07:23:44.269Z,93.2
2017-10-15T07:24:43.497Z,93.2
2017-10-15T07:25:42.324Z,93.3
2017-10-15T07:26:41.436Z,93.2
2017-10-15T07:27:41.149Z,93.3
2017-10-15T07:28:40.111Z,93.3
2017-10-15T07:29:39.458Z,93.4
2017-10-15T07:30:38.440Z,93.3
2017-10-15T07:31:37.423Z,93
2017-10-15T07:32:36.904Z,92.9
2017-10-15T07:33:36.115Z,92.7
2017-10-15T07:34:35.334Z,92.7
2017-10-15T07:35:34.550Z,92.8
2017-10-15T07:36:33.502Z,92.7
2017-10-15T07:37:33.097Z,92.6
2017-10-15T07:38:32.073Z,92.6
2017-10-15T07:39:30.915Z,92.7
2017-10-15T07:40:30.631Z,92.7
2017-10-15T07:41:29.332Z,92.7
2017-10-15T07:42:28.542Z,92.4
2017-10-15T07:43:28.022Z,92.3
2017-10-15T07:44:27.361Z,92.2
2017-10-15T07:45:26.477Z,92.2
2017-10-15T07:46:25.452Z,92.1
2017-10-15T07:47:24.547Z,92
2017-10-15T07:48:23.890Z,92
2017-10-15T07:49:23.376Z,92.2
2017-10-15T07:50:22.088Z,92.3
2017-10-15T07:51:21.435Z,92.3
2017-10-15T07:52:20.541Z,92.4
2017-10-15T07:53:19.625Z,92.5
2017-10-15T07:54:18.972Z,92.3
2017-10-15T07:55:18.458Z,92.1
2017-10-15T07:56:17.673Z,91.7
2017-10-15T07:57:16.646Z,91.7
2017-10-15T07:58:15.997Z,91.9
2017-10-15T07:59:15.364Z,91.7
2017-10-15T08:00:14.201Z,91.6
2017-10-15T08:01:13.434Z,91.6
2017-10-15T08:02:12.778Z,91.7
2017-10-15T08:03:11.888Z,91.1
2017-10-15T08:04:11.233Z,90.5
2017-10-15T08:05:10.216Z,90.4
2017-10-15T08:06:09.836Z,89.8
2017-10-15T08:07:08.686Z,89.9
2017-10-15T08:08:08.022Z,89.9
2017-10-15T08:09:07.243Z,89.7
2017-10-15T08:11:05.474Z,89.5
2017-10-15T08:12:04.687Z,89.3
2017-10-15T08:13:04.157Z,89.4
2017-10-15T08:14:03.006Z,89.4
2017-10-15T08:15:02.492Z,89.6
2017-10-15T08:16:01.836Z,89.6
2017-10-15T08:17:00.688Z,89.7
2017-10-15T08:18:00.036Z,89.8
2017-10-15T08:20:57.833Z,89.8
2017-10-15T08:21:56.916Z,89.5
2017-10-15T08:22:55.893Z,88.9
2017-10-15T08:23:55.107Z,88.3
